Terminal Aerodrome Forecast
Issued by NWS Pittsburgh, PA

Current Version | Previous Version | Text Only | Print | Product List | Glossary Off
Versions: 1 2 3 4 5 6 7 8 9 10 11 12 13 14 15 16 17 18 19 20 21 22 23 24 25 26 27 28 29 30 31 32 33 34 35 36

000
FTUS41 KPBZ 272100 AAE
TAFPIT
TAF AMD
KPIT 272137Z 2722/2824 22009KT P6SM VCSH FEW030 BKN060 OVC080
     FM280600 27010KT 5SM -SHRA BKN020
     FM280900 28010KT 5SM BR OVC012
     FM281400 30008KT P6SM BKN025
     FM281800 29010G15KT P6SM VCSH BKN025=

USA.gov is the U.S. government's official web portal to all federal, state and local government web resources and services.